createdAt,value
2023-08-10T00:02:19.931Z,20.48
2023-08-10T00:04:46.267Z,20.55
2023-08-10T00:07:12.601Z,20.81
2023-08-10T00:09:38.928Z,20.83
2023-08-10T00:12:05.436Z,20.78
2023-08-10T00:14:31.977Z,20.66
2023-08-10T00:16:58.404Z,20.59
2023-08-10T00:19:24.729Z,20.58
2023-08-10T00:21:51.085Z,20.63
2023-08-10T00:24:17.461Z,20.56
2023-08-10T00:26:43.766Z,20.52
2023-08-10T00:29:11.460Z,20.54
2023-08-10T00:31:37.774Z,20.66
2023-08-10T00:34:04.047Z,20.89
2023-08-10T00:36:30.408Z,20.66
2023-08-10T00:38:56.686Z,20.47
2023-08-10T00:41:22.983Z,20.36
2023-08-10T00:43:49.417Z,20.41
2023-08-10T00:46:15.766Z,20.48
2023-08-10T00:48:42.070Z,20.59
2023-08-10T00:51:08.435Z,20.47
2023-08-10T00:53:34.738Z,20.48
2023-08-10T00:56:01.080Z,20.65
2023-08-10T00:58:27.586Z,20.84
2023-08-10T01:00:53.857Z,20.68
2023-08-10T01:03:20.443Z,20.55
2023-08-10T01:05:46.957Z,20.43
2023-08-10T01:08:13.282Z,20.36
2023-08-10T01:10:39.595Z,20.44
2023-08-10T01:13:06.018Z,20.41
2023-08-10T01:15:33.072Z,20.38
2023-08-10T01:17:59.424Z,20.41
2023-08-10T01:20:25.864Z,20.24
2023-08-10T01:22:52.170Z,20.36
2023-08-10T01:25:18.500Z,20.34
2023-08-10T01:27:45.066Z,20.28
2023-08-10T01:30:11.458Z,20.34
2023-08-10T01:32:37.773Z,20.38
2023-08-10T01:35:04.137Z,20.40
2023-08-10T01:37:30.436Z,20.24
2023-08-10T01:39:56.781Z,20.34
2023-08-10T01:42:23.178Z,20.38
2023-08-10T01:44:49.475Z,20.35
2023-08-10T01:47:15.855Z,20.38
2023-08-10T01:49:42.361Z,20.49
2023-08-10T01:52:08.671Z,20.45
2023-08-10T01:54:34.982Z,20.47
2023-08-10T01:57:01.369Z,20.56
2023-08-10T01:59:27.847Z,20.39
2023-08-10T02:01:54.194Z,20.42
2023-08-10T02:04:20.846Z,20.42
2023-08-10T02:06:47.204Z,20.43
2023-08-10T02:09:13.500Z,20.38
2023-08-10T02:11:39.816Z,20.33
2023-08-10T02:14:06.162Z,20.35
2023-08-10T02:16:32.490Z,20.40
2023-08-10T02:18:58.862Z,20.36
2023-08-10T02:21:25.256Z,20.41
2023-08-10T02:23:51.607Z,20.25
2023-08-10T02:26:17.967Z,20.38
2023-08-10T02:28:44.292Z,20.43
2023-08-10T02:31:10.810Z,20.37
2023-08-10T02:33:37.226Z,20.39
2023-08-10T02:36:03.559Z,20.30
2023-08-10T02:38:29.856Z,20.31
2023-08-10T02:40:56.183Z,20.35
2023-08-10T02:43:22.486Z,20.32
2023-08-10T02:45:48.797Z,20.38
2023-08-10T02:48:15.222Z,20.30
2023-08-10T02:50:41.583Z,20.34
2023-08-10T02:53:07.886Z,20.24
2023-08-10T02:55:34.280Z,20.31
2023-08-10T02:58:00.609Z,20.36
2023-08-10T03:00:26.947Z,20.45
2023-08-10T03:02:53.426Z,20.31
2023-08-10T03:05:19.766Z,20.26
2023-08-10T03:07:46.061Z,20.42
2023-08-10T03:10:12.679Z,20.33
2023-08-10T03:12:39.016Z,20.30
2023-08-10T03:15:05.376Z,20.29
2023-08-10T03:17:31.797Z,20.27
2023-08-10T03:19:58.130Z,20.18
2023-08-10T03:22:24.437Z,20.33
2023-08-10T03:24:50.813Z,20.26
2023-08-10T03:27:17.133Z,20.35
2023-08-10T03:29:43.442Z,20.29
2023-08-10T03:32:09.967Z,20.21
2023-08-10T03:34:36.382Z,20.36
2023-08-10T03:37:02.706Z,20.32
2023-08-10T03:39:29.097Z,20.39
2023-08-10T03:41:55.453Z,20.34
2023-08-10T03:44:21.834Z,20.33
2023-08-10T03:46:48.290Z,20.44
2023-08-10T03:49:14.678Z,20.27
2023-08-10T03:51:41.030Z,20.25
2023-08-10T03:54:07.418Z,20.20
2023-08-10T03:56:33.718Z,20.14
2023-08-10T03:58:59.979Z,20.14
2023-08-10T04:01:26.385Z,20.07
2023-08-10T04:03:52.778Z,20.10
2023-08-10T04:06:19.249Z,20.13
2023-08-10T04:08:45.639Z,20.08
2023-08-10T04:11:11.964Z,20.12
2023-08-10T04:13:38.292Z,20.13
2023-08-10T04:16:04.694Z,20.15
2023-08-10T04:18:31.020Z,20.17
2023-08-10T04:20:57.310Z,20.25
2023-08-10T04:23:23.700Z,20.38
2023-08-10T04:25:50.025Z,20.37
2023-08-10T04:28:16.337Z,20.29
2023-08-10T04:30:42.728Z,20.27
2023-08-10T04:33:09.091Z,20.20
2023-08-10T04:35:35.443Z,20.21
2023-08-10T04:38:02.122Z,20.07
2023-08-10T04:40:28.455Z,20.07
2023-08-10T04:42:54.754Z,20.04
2023-08-10T04:45:21.273Z,20.07
2023-08-10T04:47:47.614Z,20.07
2023-08-10T04:50:13.943Z,20.05
2023-08-10T04:52:40.318Z,19.99
2023-08-10T04:55:06.632Z,20.11
2023-08-10T04:57:32.926Z,19.97
2023-08-10T04:59:59.266Z,20.13
2023-08-10T05:02:26.615Z,20.11
2023-08-10T05:04:53.038Z,20.19
2023-08-10T05:07:19.386Z,20.22
2023-08-10T05:09:56.299Z,20.27
2023-08-10T05:12:22.962Z,20.25
2023-08-10T05:14:49.266Z,20.19
2023-08-10T05:17:15.979Z,20.20
2023-08-10T05:19:42.339Z,20.20
2023-08-10T05:22:08.690Z,20.14
2023-08-10T05:24:34.979Z,20.15
2023-08-10T05:27:01.531Z,20.11
2023-08-10T05:29:27.829Z,20.14
2023-08-10T05:31:54.286Z,20.09
2023-08-10T05:34:20.686Z,20.15
2023-08-10T05:36:47.070Z,20.04
2023-08-10T05:39:13.366Z,20.10
2023-08-10T05:41:39.815Z,20.07
2023-08-10T05:44:06.085Z,20.05
2023-08-10T05:46:32.451Z,20.06
2023-08-10T05:48:58.814Z,20.13
2023-08-10T05:51:25.136Z,20.16
2023-08-10T05:53:51.528Z,20.19
2023-08-10T05:56:17.916Z,20.22
2023-08-10T05:58:44.311Z,20.24
2023-08-10T06:01:10.685Z,20.26
2023-08-10T06:03:39.530Z,20.29
2023-08-10T06:06:05.894Z,20.38
2023-08-10T06:08:32.216Z,20.39
2023-08-10T06:10:58.557Z,20.27
2023-08-10T06:13:24.959Z,20.40
2023-08-10T06:15:51.251Z,20.34
2023-08-10T06:18:17.948Z,20.43
2023-08-10T06:20:44.280Z,20.41
2023-08-10T06:23:10.584Z,20.40
2023-08-10T06:25:36.944Z,20.46
2023-08-10T06:28:03.230Z,20.43
2023-08-10T06:30:29.581Z,20.41
2023-08-10T06:32:57.231Z,20.42
2023-08-10T06:35:23.595Z,20.18
2023-08-10T06:37:49.912Z,20.02
2023-08-10T06:40:16.276Z,20.03
2023-08-10T06:42:42.567Z,20.06
2023-08-10T06:45:08.970Z,20.04
2023-08-10T06:47:35.436Z,20.03
2023-08-10T06:50:01.806Z,20.02
2023-08-10T06:52:28.136Z,20.05
2023-08-10T06:54:54.488Z,20.07
2023-08-10T06:57:20.781Z,20.01
2023-08-10T07:04:47.610Z,20.07
2023-08-10T07:07:13.904Z,20.18
2023-08-10T07:09:40.405Z,20.08
2023-08-10T07:12:07.161Z,20.12
2023-08-10T07:14:33.479Z,20.07
2023-08-10T07:16:59.959Z,20.09
2023-08-10T07:19:26.289Z,20.07
2023-08-10T07:21:52.608Z,20.08
2023-08-10T07:24:19.041Z,20.16
2023-08-10T07:26:45.363Z,20.09
2023-08-10T07:29:11.666Z,20.17
2023-08-10T07:31:38.051Z,20.13
2023-08-10T07:34:04.374Z,20.15
2023-08-10T07:36:30.685Z,20.30
2023-08-10T07:38:57.174Z,20.23
2023-08-10T07:41:23.516Z,20.31
2023-08-10T07:43:49.815Z,20.28
2023-08-10T07:46:16.287Z,20.23
2023-08-10T07:48:42.730Z,20.19
2023-08-10T07:51:09.044Z,20.19
2023-08-10T07:53:35.409Z,20.18
2023-08-10T07:56:01.762Z,20.21
2023-08-10T07:58:28.094Z,20.24
2023-08-10T08:00:54.452Z,20.24
2023-08-10T08:03:20.900Z,20.22
2023-08-10T08:05:47.318Z,20.25
2023-08-10T08:08:13.725Z,20.27
2023-08-10T08:10:40.039Z,20.25
2023-08-10T08:13:06.390Z,20.35
2023-08-10T08:15:32.738Z,20.23
2023-08-10T08:17:59.085Z,20.20
2023-08-10T08:20:25.550Z,20.34
2023-08-10T08:22:51.964Z,20.25
2023-08-10T08:25:18.288Z,20.28
2023-08-10T08:27:44.617Z,20.42
2023-08-10T08:30:10.997Z,20.37
2023-08-10T08:35:09.450Z,20.32
2023-08-10T08:37:35.864Z,20.31
2023-08-10T08:40:02.216Z,20.36
2023-08-10T08:42:28.527Z,20.41
2023-08-10T08:44:54.885Z,20.38
2023-08-10T08:47:21.180Z,20.44
2023-08-10T08:49:47.481Z,20.30
2023-08-10T08:52:13.997Z,20.32
2023-08-10T08:54:40.309Z,20.41
2023-08-10T08:57:06.583Z,20.32
2023-08-10T08:59:32.964Z,20.40
2023-08-10T09:02:08.647Z,20.39
2023-08-10T09:04:43.564Z,20.45
2023-08-10T09:07:12.756Z,20.47
2023-08-10T09:09:39.122Z,20.31
2023-08-10T09:12:05.721Z,20.41
2023-08-10T09:14:32.657Z,20.37
2023-08-10T09:16:59.057Z,20.36
2023-08-10T09:19:25.486Z,20.43
2023-08-10T09:21:51.811Z,20.46
2023-08-10T09:24:18.222Z,20.44
2023-08-10T09:26:44.699Z,20.50
2023-08-10T09:29:11.019Z,20.48
2023-08-10T09:31:37.411Z,20.48
2023-08-10T09:34:03.794Z,20.55
2023-08-10T09:36:30.144Z,20.49
2023-08-10T09:39:00.273Z,20.55
2023-08-10T09:41:28.069Z,20.57
2023-08-10T09:43:54.437Z,20.53
2023-08-10T09:46:20.796Z,20.36
2023-08-10T09:48:47.341Z,20.47
2023-08-10T09:51:13.647Z,20.42
2023-08-10T09:53:39.993Z,20.45
2023-08-10T09:56:07.640Z,20.52
2023-08-10T09:58:33.935Z,20.58
2023-08-10T10:01:00.272Z,20.62
2023-08-10T10:03:26.889Z,20.53
2023-08-10T10:05:53.246Z,20.47
2023-08-10T10:08:19.556Z,20.47
2023-08-10T10:10:45.988Z,20.46
2023-08-10T10:13:14.487Z,20.51
2023-08-10T10:15:41.036Z,20.50
2023-08-10T10:18:07.662Z,20.49
2023-08-10T10:20:33.991Z,20.58
2023-08-10T10:23:00.327Z,20.56
2023-08-10T10:25:26.733Z,20.59
2023-08-10T10:27:53.155Z,20.66
2023-08-10T10:30:19.448Z,20.55
2023-08-10T10:32:46.022Z,20.52
2023-08-10T10:35:12.472Z,20.50
2023-08-10T10:37:38.896Z,20.52
2023-08-10T10:40:05.567Z,20.45
2023-08-10T10:42:31.924Z,20.60
2023-08-10T10:44:58.256Z,20.59
2023-08-10T10:47:24.617Z,20.67
2023-08-10T10:49:50.904Z,20.66
2023-08-10T10:52:17.297Z,20.61
2023-08-10T10:54:45.065Z,20.54
2023-08-10T10:57:12.029Z,20.69
2023-08-10T10:59:38.402Z,20.74
2023-08-10T11:02:05.164Z,20.68
2023-08-10T11:04:31.713Z,20.69
2023-08-10T11:06:57.989Z,20.61
2023-08-10T11:09:24.324Z,20.54
2023-08-10T11:11:50.607Z,20.56
2023-08-10T11:14:16.917Z,20.54
2023-08-10T11:16:43.702Z,20.56
2023-08-10T11:19:10.055Z,20.60
2023-08-10T11:21:36.361Z,20.58
2023-08-10T11:24:03.069Z,20.53
2023-08-10T11:26:29.362Z,20.59
2023-08-10T11:28:55.668Z,20.77
2023-08-10T11:31:22.317Z,20.74
2023-08-10T11:33:48.657Z,20.74
2023-08-10T11:36:14.943Z,20.64
2023-08-10T11:38:41.354Z,20.71
2023-08-10T11:41:07.745Z,20.71
2023-08-10T11:43:34.089Z,20.64
2023-08-10T11:46:00.519Z,20.77
2023-08-10T11:48:26.824Z,20.78
2023-08-10T11:50:53.124Z,20.83
2023-08-10T11:53:19.468Z,20.75
2023-08-10T11:55:45.739Z,20.80
2023-08-10T11:58:13.039Z,20.74
2023-08-10T12:00:40.135Z,20.73
2023-08-10T12:03:06.560Z,20.69
2023-08-10T12:05:32.855Z,20.74
2023-08-10T12:07:59.189Z,20.74
2023-08-10T12:10:25.468Z,20.75
2023-08-10T12:12:51.762Z,20.70
2023-08-10T12:15:18.155Z,20.77
2023-08-10T12:17:44.547Z,20.73
2023-08-10T12:20:10.920Z,20.60
2023-08-10T12:22:37.301Z,20.58
2023-08-10T12:25:03.593Z,20.60
2023-08-10T12:27:29.897Z,20.52
2023-08-10T12:29:56.439Z,20.57
2023-08-10T12:32:22.749Z,20.50
2023-08-10T12:34:49.136Z,20.41
2023-08-10T12:37:15.457Z,20.34
2023-08-10T12:39:41.798Z,20.37
2023-08-10T12:42:08.162Z,20.39
2023-08-10T12:44:34.527Z,20.34
2023-08-10T12:47:00.842Z,20.37
2023-08-10T12:49:27.127Z,20.47
2023-08-10T12:51:53.630Z,20.47
2023-08-10T12:54:19.968Z,20.42
2023-08-10T12:56:46.482Z,20.59
2023-08-10T12:59:12.841Z,20.63
2023-08-10T13:01:39.207Z,20.56
2023-08-10T13:04:05.566Z,20.46
2023-08-10T13:06:32.005Z,20.53
2023-08-10T13:08:58.320Z,20.46
2023-08-10T13:11:24.651Z,20.40
2023-08-10T13:13:51.266Z,20.38
2023-08-10T13:16:18.133Z,20.34
2023-08-10T13:18:44.776Z,20.33
2023-08-10T13:21:11.350Z,20.39
2023-08-10T13:23:37.746Z,20.28
2023-08-10T13:26:04.193Z,20.30
2023-08-10T13:28:30.676Z,20.29
2023-08-10T13:30:57.112Z,20.25
2023-08-10T13:36:11.563Z,20.34
2023-08-10T13:38:37.976Z,20.37
2023-08-10T13:41:04.293Z,20.52
2023-08-10T13:43:30.641Z,20.55
2023-08-10T13:45:56.986Z,20.57
2023-08-10T13:48:23.316Z,20.48
2023-08-10T13:50:49.645Z,20.38
2023-08-10T13:53:16.043Z,20.31
2023-08-10T13:55:42.335Z,20.29
2023-08-10T13:58:09.275Z,20.28
2023-08-10T14:00:35.635Z,20.23
2023-08-10T14:03:02.628Z,20.28
2023-08-10T14:05:30.029Z,20.25
2023-08-10T14:07:56.332Z,20.18
2023-08-10T14:10:22.713Z,20.11
2023-08-10T14:12:49.025Z,20.14
2023-08-10T14:15:15.406Z,20.17
2023-08-10T14:17:41.740Z,20.16
2023-08-10T14:20:08.121Z,20.22
2023-08-10T14:22:35.684Z,20.25
2023-08-10T14:25:01.993Z,20.47
2023-08-10T14:27:28.527Z,20.56
2023-08-10T14:29:54.846Z,20.61
2023-08-10T14:32:21.186Z,20.57
2023-08-10T14:34:47.560Z,20.39
2023-08-10T14:37:13.935Z,20.38
2023-08-10T14:39:40.692Z,20.50
2023-08-10T14:42:07.752Z,20.73
2023-08-10T14:44:34.159Z,20.62
2023-08-10T14:47:00.565Z,20.52
2023-08-10T14:49:27.108Z,20.40
2023-08-10T14:51:53.427Z,20.38
2023-08-10T14:54:19.715Z,20.41
2023-08-10T14:56:46.077Z,20.33
2023-08-10T14:59:12.404Z,20.36
2023-08-10T15:01:39.374Z,20.33
2023-08-10T15:04:06.502Z,20.18
2023-08-10T15:06:32.888Z,20.25
2023-08-10T15:08:59.168Z,20.17
2023-08-10T15:11:25.632Z,20.17
2023-08-10T15:13:52.037Z,20.19
2023-08-10T15:16:18.330Z,20.11
2023-08-10T15:18:44.910Z,20.09
2023-08-10T15:21:11.239Z,20.09
2023-08-10T15:26:06.883Z,20.07
2023-08-10T15:28:33.199Z,20.07
2023-08-10T15:30:59.524Z,20.18
2023-08-10T15:33:25.908Z,20.20
2023-08-10T15:35:52.238Z,20.41
2023-08-10T15:38:18.648Z,20.49
2023-08-10T15:40:44.953Z,20.52
2023-08-10T15:43:11.275Z,20.40
2023-08-10T15:45:37.668Z,20.29
2023-08-10T15:48:04.019Z,20.22
2023-08-10T15:50:30.415Z,20.15
2023-08-10T15:52:56.728Z,20.10
2023-08-10T15:55:23.449Z,20.12
2023-08-10T15:57:49.769Z,20.11
2023-08-10T16:00:16.071Z,20.09
2023-08-10T16:02:42.394Z,20.02
2023-08-10T16:05:08.733Z,20.10
2023-08-10T16:07:35.021Z,19.89
2023-08-10T16:10:01.354Z,20.01
2023-08-10T16:12:27.698Z,20.07
2023-08-10T16:14:54.003Z,20.07
2023-08-10T16:17:20.455Z,20.17
2023-08-10T16:19:46.792Z,20.16
2023-08-10T16:22:13.061Z,20.45
2023-08-10T16:24:39.396Z,20.40
2023-08-10T16:27:05.723Z,20.34
2023-08-10T16:29:32.048Z,20.29
2023-08-10T16:31:58.584Z,20.22
2023-08-10T16:34:24.929Z,20.22
2023-08-10T16:36:51.266Z,20.57
2023-08-10T16:39:17.591Z,20.45
2023-08-10T16:41:44.015Z,20.40
2023-08-10T16:44:10.307Z,20.32
2023-08-10T16:46:36.624Z,20.39
2023-08-10T16:49:03.390Z,20.38
2023-08-10T16:51:30.535Z,20.38
2023-08-10T16:53:56.962Z,20.35
2023-08-10T16:56:23.325Z,20.29
2023-08-10T16:58:49.632Z,20.24
2023-08-10T17:01:16.032Z,20.52
2023-08-10T17:03:42.443Z,20.64
2023-08-10T17:06:08.735Z,20.44
2023-08-10T17:08:35.061Z,20.27
2023-08-10T17:11:01.381Z,20.34
2023-08-10T17:13:27.660Z,20.40
2023-08-10T17:15:54.117Z,20.48
2023-08-10T17:18:21.977Z,20.38
2023-08-10T17:20:48.328Z,20.26
2023-08-10T17:23:14.829Z,20.29
2023-08-10T17:25:41.171Z,20.14
2023-08-10T17:28:07.485Z,20.11
2023-08-10T17:30:33.816Z,20.10
2023-08-10T17:33:00.179Z,19.98
2023-08-10T17:35:26.533Z,19.97
2023-08-10T17:37:52.871Z,19.98
2023-08-10T17:40:19.195Z,20.00
2023-08-10T17:42:45.496Z,20.00
2023-08-10T17:45:11.853Z,20.02
2023-08-10T17:47:38.242Z,19.97
2023-08-10T17:50:04.566Z,20.02
2023-08-10T17:52:31.265Z,19.98
2023-08-10T17:54:58.080Z,20.18
2023-08-10T17:57:24.722Z,20.37
2023-08-10T17:59:51.119Z,20.37
2023-08-10T18:02:17.499Z,20.37
2023-08-10T18:04:43.917Z,20.26
2023-08-10T18:07:10.416Z,20.14
2023-08-10T18:09:36.718Z,20.28
2023-08-10T18:12:03.060Z,20.57
2023-08-10T18:14:29.445Z,20.55
2023-08-10T18:16:57.022Z,20.20
2023-08-10T18:19:23.458Z,20.25
2023-08-10T18:21:49.808Z,20.28
2023-08-10T18:24:16.288Z,20.33
2023-08-10T18:26:42.661Z,20.32
2023-08-10T18:29:09.246Z,20.25
2023-08-10T18:31:35.699Z,20.18
2023-08-10T18:34:02.021Z,20.20
2023-08-10T18:36:28.398Z,20.14
2023-08-10T18:38:54.763Z,20.04
2023-08-10T18:41:21.109Z,20.07
2023-08-10T18:43:47.476Z,20.05
2023-08-10T18:46:13.920Z,20.03
2023-08-10T18:48:40.242Z,20.04
2023-08-10T18:51:06.627Z,19.90
2023-08-10T18:53:32.974Z,19.96
2023-08-10T18:55:59.375Z,19.99
2023-08-10T18:58:25.705Z,19.97
2023-08-10T19:00:52.085Z,19.98
2023-08-10T19:03:18.400Z,20.06
2023-08-10T19:05:44.726Z,20.12
2023-08-10T19:08:11.078Z,20.31
2023-08-10T19:10:37.443Z,20.37
2023-08-10T19:13:03.803Z,20.19
2023-08-10T19:15:30.144Z,20.09
2023-08-10T19:17:56.527Z,20.07
2023-08-10T19:20:23.322Z,20.06
2023-08-10T19:22:49.628Z,19.95
2023-08-10T19:25:15.990Z,19.94
2023-08-10T19:27:42.642Z,19.99
2023-08-10T19:30:09.049Z,19.90
2023-08-10T19:32:35.452Z,19.96
2023-08-10T19:35:01.892Z,20.00
2023-08-10T19:37:28.467Z,20.01
2023-08-10T19:39:54.757Z,19.85
2023-08-10T19:42:21.085Z,19.79
2023-08-10T19:44:47.424Z,19.83
2023-08-10T19:47:13.772Z,19.93
2023-08-10T19:49:40.132Z,20.03
2023-08-10T19:52:06.644Z,20.22
2023-08-10T19:54:33.111Z,20.25
2023-08-10T19:56:59.504Z,20.13
2023-08-10T19:59:25.924Z,20.10
2023-08-10T20:01:52.233Z,20.12
2023-08-10T20:04:18.647Z,19.95
2023-08-10T20:06:44.996Z,19.97
2023-08-10T20:09:11.355Z,19.93
2023-08-10T20:11:37.748Z,19.87
2023-08-10T20:14:04.092Z,19.89
2023-08-10T20:16:30.457Z,19.82
2023-08-10T20:18:56.964Z,19.85
2023-08-10T20:21:23.270Z,19.80
2023-08-10T20:23:49.610Z,19.76
2023-08-10T20:26:15.928Z,19.80
2023-08-10T20:28:42.255Z,19.73
2023-08-10T20:31:08.712Z,19.89
2023-08-10T20:33:35.189Z,19.91
2023-08-10T20:36:01.710Z,20.05
2023-08-10T20:38:28.054Z,20.14
2023-08-10T20:40:54.542Z,20.07
2023-08-10T20:43:20.853Z,20.03
2023-08-10T20:45:47.203Z,19.95
2023-08-10T20:48:13.564Z,19.94
2023-08-10T20:50:39.904Z,19.96
2023-08-10T20:53:06.237Z,19.92
2023-08-10T20:55:32.589Z,19.90
2023-08-10T20:57:58.929Z,19.83
2023-08-10T21:00:25.230Z,19.78
2023-08-10T21:02:51.878Z,19.86
2023-08-10T21:05:18.310Z,19.75
2023-08-10T21:07:44.634Z,19.76
2023-08-10T21:10:10.973Z,19.85
2023-08-10T21:12:37.383Z,19.70
2023-08-10T21:15:03.716Z,19.84
2023-08-10T21:17:30.260Z,19.97
2023-08-10T21:19:56.605Z,20.07
2023-08-10T21:22:22.907Z,20.09
2023-08-10T21:24:49.268Z,20.13
2023-08-10T21:27:15.591Z,20.05
2023-08-10T21:29:42.888Z,19.95
2023-08-10T21:32:09.194Z,19.90
2023-08-10T21:34:35.615Z,19.91
2023-08-10T21:37:01.946Z,19.81
2023-08-10T21:39:28.363Z,19.76
2023-08-10T21:41:54.766Z,19.80
2023-08-10T21:44:21.071Z,19.76
2023-08-10T21:46:47.486Z,19.73
2023-08-10T21:49:14.371Z,19.69
2023-08-10T21:51:40.748Z,19.70
2023-08-10T21:54:07.083Z,19.65
2023-08-10T21:56:33.467Z,19.73
2023-08-10T21:58:59.762Z,19.70
2023-08-10T22:01:26.155Z,19.81
2023-08-10T22:03:52.514Z,19.86
2023-08-10T22:06:18.941Z,19.91
2023-08-10T22:08:45.270Z,19.98
2023-08-10T22:11:11.634Z,19.97
2023-08-10T22:13:37.903Z,19.97
2023-08-10T22:16:04.225Z,19.79
2023-08-10T22:18:30.623Z,19.81
2023-08-10T22:20:56.928Z,19.75
2023-08-10T22:23:23.262Z,19.65
2023-08-10T22:25:49.617Z,19.77
2023-08-10T22:28:15.959Z,19.73
2023-08-10T22:30:42.292Z,19.66
2023-08-10T22:33:08.671Z,19.76
2023-08-10T22:35:34.964Z,19.75
2023-08-10T22:38:01.521Z,19.61
2023-08-10T22:40:27.903Z,19.55
2023-08-10T22:42:54.222Z,19.64
2023-08-10T22:45:20.554Z,19.69
2023-08-10T22:47:46.955Z,19.75
2023-08-10T22:50:13.285Z,19.88
2023-08-10T22:52:39.670Z,19.96
2023-08-10T22:55:06.014Z,20.01
2023-08-10T22:57:32.335Z,19.92
2023-08-10T22:59:58.662Z,19.85
2023-08-10T23:02:25.038Z,19.70
2023-08-10T23:04:51.315Z,19.80
2023-08-10T23:07:17.658Z,20.11
2023-08-10T23:09:44.037Z,20.14
2023-08-10T23:12:10.457Z,19.95
2023-08-10T23:14:37.159Z,19.90
2023-08-10T23:17:03.513Z,19.89
2023-08-10T23:19:29.797Z,19.92
2023-08-10T23:21:56.130Z,19.95
2023-08-10T23:24:22.573Z,19.96
2023-08-10T23:26:49.043Z,19.87
2023-08-10T23:29:15.527Z,19.82
2023-08-10T23:31:41.878Z,20.07
2023-08-10T23:34:08.198Z,20.38
2023-08-10T23:36:34.704Z,20.04
2023-08-10T23:39:01.033Z,19.95
2023-08-10T23:41:27.442Z,19.91
2023-08-10T23:43:53.798Z,19.97
2023-08-10T23:46:20.170Z,20.04
2023-08-10T23:48:46.554Z,20.05
2023-08-10T23:51:12.903Z,19.94
2023-08-10T23:53:39.248Z,19.91
2023-08-10T23:56:05.558Z,20.00
2023-08-10T23:58:38.859Z,20.28
